GLD1744 SSBL-SBLJ
Flight info
| Callsign | GLD1744 |
|---|---|
| Flight time | 0h 58m |
| Altitude | 6500 |
| Route | DCT 2713S04939W 2747S05017W |
| Aircraft | C152/L-SDFGIRY/S |
Departure
| Time | 2026-05-04 14:00 |
|---|---|
| Airport | Blumenau Airport (SSBL) |
Arrival
| Time | 2026-05-04 14:58 |
|---|---|
| Airport | Lages Airport (SBLJ) |
| Time | Latitude | Longitude | Altitude | Speed | Heading |
|---|---|---|---|---|---|
| 2026-05-04 13:53 | -26.83105 | -49.09302 | 72 ft | 0 kts | 274° |
| 2026-05-04 13:56 | -26.83104 | -49.09307 | 72 ft | 3 kts | 286° |
| 2026-05-04 13:56 | -26.83077 | -49.09326 | 72 ft | 8 kts | 342° |
| 2026-05-04 13:56 | -26.82904 | -49.09367 | 68 ft | 17 kts | 348° |
| 2026-05-04 13:57 | -26.82813 | -49.09408 | 71 ft | 0 kts | 297° |
| 2026-05-04 13:58 | -26.82812 | -49.09409 | 71 ft | 2 kts | 295° |
| 2026-05-04 13:58 | -26.82629 | -49.09500 | 72 ft | 15 kts | 343° |
| 2026-05-04 13:58 | -26.82578 | -49.09504 | 71 ft | 10 kts | 147° |
| 2026-05-04 13:59 | -26.82666 | -49.09476 | 68 ft | 28 kts | 165° |
| 2026-05-04 13:59 | -26.83047 | -49.09379 | 106 ft | 74 kts | 167° |
| 2026-05-04 13:59 | -26.84075 | -49.09070 | 487 ft | 79 kts | 165° |
| 2026-05-04 14:00 | -26.84655 | -49.08890 | 577 ft | 95 kts | 162° |
| 2026-05-04 14:00 | -26.85951 | -49.08589 | 882 ft | 94 kts | 192° |
| 2026-05-04 14:00 | -26.86568 | -49.08860 | 1003 ft | 96 kts | 215° |
| 2026-05-04 14:01 | -26.87076 | -49.09321 | 1212 ft | 92 kts | 224° |
| 2026-05-04 14:01 | -26.87538 | -49.09819 | 1422 ft | 92 kts | 227° |
| 2026-05-04 14:01 | -26.88449 | -49.10860 | 1861 ft | 95 kts | 228° |
| 2026-05-04 14:02 | -26.88913 | -49.11402 | 2072 ft | 97 kts | 229° |
| 2026-05-04 14:02 | -26.89389 | -49.11942 | 2262 ft | 97 kts | 228° |
| 2026-05-04 14:02 | -26.89859 | -49.12487 | 2469 ft | 98 kts | 231° |
| 2026-05-04 14:02 | -26.90316 | -49.13042 | 2658 ft | 98 kts | 232° |
| 2026-05-04 14:03 | -26.90772 | -49.13614 | 2851 ft | 98 kts | 234° |
| 2026-05-04 14:03 | -26.91218 | -49.14189 | 3047 ft | 97 kts | 237° |
| 2026-05-04 14:03 | -26.91641 | -49.14782 | 3240 ft | 97 kts | 239° |
| 2026-05-04 14:03 | -26.92059 | -49.15384 | 3461 ft | 99 kts | 239° |
| 2026-05-04 14:04 | -26.92900 | -49.16609 | 3848 ft | 99 kts | 240° |
| 2026-05-04 14:04 | -26.93261 | -49.17138 | 4010 ft | 97 kts | 240° |
| 2026-05-04 14:04 | -26.93295 | -49.17187 | 4032 ft | 97 kts | 240° |
| 2026-05-04 14:05 | -26.94105 | -49.18360 | 4430 ft | 94 kts | 240° |
| 2026-05-04 14:05 | -26.94499 | -49.18934 | 4596 ft | 91 kts | 240° |
| 2026-05-04 14:05 | -26.94880 | -49.19485 | 4784 ft | 88 kts | 240° |
| 2026-05-04 14:06 | -26.95250 | -49.20014 | 4977 ft | 85 kts | 240° |
| 2026-05-04 14:06 | -26.95606 | -49.20511 | 5161 ft | 79 kts | 240° |
| 2026-05-04 14:06 | -26.95941 | -49.20977 | 5364 ft | 77 kts | 240° |
| 2026-05-04 14:06 | -26.96279 | -49.21439 | 5581 ft | 76 kts | 240° |
| 2026-05-04 14:07 | -26.96613 | -49.21891 | 5776 ft | 75 kts | 239° |
| 2026-05-04 14:07 | -26.96943 | -49.22334 | 5981 ft | 73 kts | 240° |
| 2026-05-04 14:07 | -26.97269 | -49.22764 | 6192 ft | 72 kts | 240° |
| 2026-05-04 14:07 | -26.97594 | -49.23187 | 6406 ft | 71 kts | 240° |
| 2026-05-04 14:08 | -26.97923 | -49.23618 | 6540 ft | 80 kts | 240° |
| 2026-05-04 14:08 | -26.98321 | -49.24174 | 6475 ft | 100 kts | 240° |
| 2026-05-04 14:08 | -26.98743 | -49.24796 | 6422 ft | 99 kts | 241° |
| 2026-05-04 14:08 | -26.99149 | -49.25407 | 6407 ft | 96 kts | 242° |
| 2026-05-04 14:09 | -26.99922 | -49.26509 | 6499 ft | 89 kts | 239° |
| 2026-05-04 14:09 | -27.00336 | -49.27054 | 6509 ft | 94 kts | 238° |
| 2026-05-04 14:10 | -27.01182 | -49.28193 | 6496 ft | 95 kts | 238° |
| 2026-05-04 14:10 | -27.01602 | -49.28762 | 6489 ft | 94 kts | 238° |
| 2026-05-04 14:10 | -27.02029 | -49.29321 | 6493 ft | 94 kts | 238° |
| 2026-05-04 14:10 | -27.02460 | -49.29881 | 6524 ft | 96 kts | 238° |
| 2026-05-04 14:11 | -27.02902 | -49.30464 | 6531 ft | 100 kts | 238° |
| 2026-05-04 14:11 | -27.03815 | -49.31662 | 6498 ft | 100 kts | 237° |
| 2026-05-04 14:11 | -27.04261 | -49.32240 | 6496 ft | 99 kts | 237° |
| 2026-05-04 14:12 | -27.04711 | -49.32821 | 6501 ft | 98 kts | 237° |
| 2026-05-04 14:12 | -27.05162 | -49.33399 | 6492 ft | 98 kts | 237° |
| 2026-05-04 14:12 | -27.06049 | -49.34532 | 6504 ft | 97 kts | 237° |
| 2026-05-04 14:13 | -27.06499 | -49.35105 | 6506 ft | 98 kts | 237° |
| 2026-05-04 14:13 | -27.06947 | -49.35672 | 6494 ft | 97 kts | 237° |
| 2026-05-04 14:13 | -27.07392 | -49.36233 | 6492 ft | 96 kts | 237° |
| 2026-05-04 14:13 | -27.07828 | -49.36789 | 6500 ft | 94 kts | 238° |
| 2026-05-04 14:14 | -27.08327 | -49.37283 | 6507 ft | 103 kts | 211° |
| 2026-05-04 14:14 | -27.09651 | -49.37871 | 6436 ft | 99 kts | 210° |
| 2026-05-04 14:14 | -27.10280 | -49.38126 | 6457 ft | 97 kts | 210° |
| 2026-05-04 14:15 | -27.11558 | -49.38643 | 6502 ft | 100 kts | 209° |
| 2026-05-04 14:15 | -27.12891 | -49.39199 | 6510 ft | 103 kts | 212° |
| 2026-05-04 14:16 | -27.14120 | -49.39968 | 6503 ft | 99 kts | 225° |
| 2026-05-04 14:16 | -27.14652 | -49.40428 | 6501 ft | 97 kts | 228° |
| 2026-05-04 14:17 | -27.15673 | -49.41417 | 6503 ft | 97 kts | 230° |
| 2026-05-04 14:17 | -27.16174 | -49.41919 | 6504 ft | 97 kts | 231° |
| 2026-05-04 14:17 | -27.17174 | -49.42937 | 6512 ft | 98 kts | 231° |
| 2026-05-04 14:18 | -27.17679 | -49.43449 | 6494 ft | 97 kts | 231° |
| 2026-05-04 14:18 | -27.18673 | -49.44452 | 6505 ft | 96 kts | 231° |
| 2026-05-04 14:19 | -27.19676 | -49.45469 | 6509 ft | 98 kts | 231° |
| 2026-05-04 14:19 | -27.20183 | -49.45987 | 6501 ft | 98 kts | 231° |
| 2026-05-04 14:19 | -27.20685 | -49.46497 | 6511 ft | 99 kts | 231° |
| 2026-05-04 14:19 | -27.21194 | -49.47017 | 6499 ft | 98 kts | 231° |
| 2026-05-04 14:20 | -27.21698 | -49.47533 | 6487 ft | 97 kts | 230° |
| 2026-05-04 14:20 | -27.22196 | -49.48040 | 6497 ft | 96 kts | 231° |
| 2026-05-04 14:20 | -27.22695 | -49.48547 | 6503 ft | 97 kts | 231° |
| 2026-05-04 14:21 | -27.23697 | -49.49561 | 6498 ft | 96 kts | 231° |
| 2026-05-04 14:21 | -27.24168 | -49.50071 | 6494 ft | 94 kts | 234° |
| 2026-05-04 14:21 | -27.24616 | -49.50608 | 6463 ft | 91 kts | 235° |
| 2026-05-04 14:21 | -27.25033 | -49.51116 | 6444 ft | 87 kts | 236° |
| 2026-05-04 14:22 | -27.25443 | -49.51611 | 6496 ft | 89 kts | 236° |
| 2026-05-04 14:22 | -27.25871 | -49.52142 | 6520 ft | 93 kts | 236° |
| 2026-05-04 14:22 | -27.26312 | -49.52693 | 6506 ft | 96 kts | 236° |
| 2026-05-04 14:22 | -27.26754 | -49.53246 | 6501 ft | 95 kts | 236° |
| 2026-05-04 14:23 | -27.27642 | -49.54347 | 6506 ft | 95 kts | 236° |
| 2026-05-04 14:23 | -27.28082 | -49.54897 | 6498 ft | 94 kts | 236° |
| 2026-05-04 14:23 | -27.28518 | -49.55441 | 6489 ft | 93 kts | 236° |
| 2026-05-04 14:24 | -27.28938 | -49.55979 | 6487 ft | 90 kts | 237° |
| 2026-05-04 14:24 | -27.29362 | -49.56501 | 6493 ft | 90 kts | 236° |
| 2026-05-04 14:24 | -27.29791 | -49.57023 | 6515 ft | 92 kts | 236° |
| 2026-05-04 14:24 | -27.30230 | -49.57558 | 6512 ft | 93 kts | 236° |
| 2026-05-04 14:25 | -27.30675 | -49.58099 | 6523 ft | 95 kts | 236° |
| 2026-05-04 14:25 | -27.31571 | -49.59203 | 6505 ft | 96 kts | 236° |
| 2026-05-04 14:25 | -27.32019 | -49.59754 | 6495 ft | 94 kts | 236° |
| 2026-05-04 14:26 | -27.32463 | -49.60296 | 6502 ft | 94 kts | 236° |
| 2026-05-04 14:26 | -27.32908 | -49.60841 | 6512 ft | 95 kts | 236° |
| 2026-05-04 14:26 | -27.33357 | -49.61393 | 6515 ft | 96 kts | 236° |
| 2026-05-04 14:26 | -27.33812 | -49.61951 | 6512 ft | 97 kts | 236° |
| 2026-05-04 14:27 | -27.34271 | -49.62517 | 6511 ft | 98 kts | 236° |
| 2026-05-04 14:27 | -27.34725 | -49.63071 | 6499 ft | 97 kts | 236° |
| 2026-05-04 14:27 | -27.35177 | -49.63626 | 6488 ft | 95 kts | 236° |
| 2026-05-04 14:27 | -27.35621 | -49.64167 | 6496 ft | 94 kts | 236° |
| 2026-05-04 14:28 | -27.36066 | -49.64707 | 6503 ft | 94 kts | 236° |
| 2026-05-04 14:28 | -27.36513 | -49.65250 | 6504 ft | 95 kts | 236° |
| 2026-05-04 14:28 | -27.36963 | -49.65794 | 6510 ft | 95 kts | 236° |
| 2026-05-04 14:28 | -27.37263 | -49.66157 | 6510 ft | 96 kts | 236° |
| 2026-05-04 14:29 | -27.38328 | -49.67446 | 6508 ft | 96 kts | 236° |
| 2026-05-04 14:29 | -27.39232 | -49.68549 | 6514 ft | 97 kts | 236° |
| 2026-05-04 14:30 | -27.39696 | -49.69113 | 6511 ft | 97 kts | 236° |
| 2026-05-04 14:30 | -27.40157 | -49.69669 | 6511 ft | 97 kts | 236° |
| 2026-05-04 14:30 | -27.41074 | -49.70769 | 6497 ft | 96 kts | 236° |
| 2026-05-04 14:31 | -27.41531 | -49.71314 | 6497 ft | 95 kts | 235° |
| 2026-05-04 14:31 | -27.42433 | -49.72397 | 6503 ft | 95 kts | 235° |
| 2026-05-04 14:32 | -27.43343 | -49.73477 | 6496 ft | 95 kts | 235° |
| 2026-05-04 14:32 | -27.43796 | -49.74016 | 6512 ft | 95 kts | 235° |
| 2026-05-04 14:32 | -27.44250 | -49.74561 | 6507 ft | 95 kts | 235° |
| 2026-05-04 14:32 | -27.44701 | -49.75104 | 6497 ft | 95 kts | 235° |
| 2026-05-04 14:33 | -27.45151 | -49.75644 | 6495 ft | 94 kts | 235° |
| 2026-05-04 14:33 | -27.45595 | -49.76173 | 6509 ft | 95 kts | 235° |
| 2026-05-04 14:33 | -27.46047 | -49.76714 | 6506 ft | 95 kts | 235° |
| 2026-05-04 14:33 | -27.46502 | -49.77259 | 6516 ft | 96 kts | 235° |
| 2026-05-04 14:34 | -27.46963 | -49.77814 | 6528 ft | 98 kts | 235° |
| 2026-05-04 14:34 | -27.47410 | -49.78393 | 6502 ft | 97 kts | 243° |
| 2026-05-04 14:34 | -27.47775 | -49.79021 | 6496 ft | 94 kts | 246° |
| 2026-05-04 14:34 | -27.48097 | -49.79635 | 6465 ft | 88 kts | 248° |
| 2026-05-04 14:35 | -27.48405 | -49.80245 | 6498 ft | 90 kts | 249° |
| 2026-05-04 14:35 | -27.48706 | -49.80851 | 6473 ft | 88 kts | 249° |
| 2026-05-04 14:35 | -27.49002 | -49.81447 | 6485 ft | 87 kts | 249° |
| 2026-05-04 14:35 | -27.49296 | -49.82038 | 6495 ft | 87 kts | 249° |
| 2026-05-04 14:36 | -27.49594 | -49.82636 | 6511 ft | 88 kts | 249° |
| 2026-05-04 14:36 | -27.49893 | -49.83244 | 6501 ft | 88 kts | 249° |
| 2026-05-04 14:36 | -27.50186 | -49.83847 | 6490 ft | 87 kts | 249° |
| 2026-05-04 14:36 | -27.50485 | -49.84445 | 6502 ft | 88 kts | 249° |
| 2026-05-04 14:37 | -27.50684 | -49.84846 | 6521 ft | 89 kts | 249° |
| 2026-05-04 14:37 | -27.50984 | -49.85464 | 6518 ft | 90 kts | 249° |
| 2026-05-04 14:37 | -27.51284 | -49.86087 | 6498 ft | 90 kts | 249° |
| 2026-05-04 14:37 | -27.51580 | -49.86699 | 6500 ft | 88 kts | 249° |
| 2026-05-04 14:38 | -27.51880 | -49.87309 | 6509 ft | 90 kts | 249° |
| 2026-05-04 14:38 | -27.52189 | -49.87930 | 6510 ft | 91 kts | 249° |
| 2026-05-04 14:38 | -27.52536 | -49.88532 | 6497 ft | 93 kts | 238° |
| 2026-05-04 14:38 | -27.52982 | -49.89068 | 6502 ft | 94 kts | 234° |
| 2026-05-04 14:39 | -27.53021 | -49.89112 | 6500 ft | 94 kts | 234° |
| 2026-05-04 14:39 | -27.53401 | -49.89533 | 6504 ft | 94 kts | 232° |
| 2026-05-04 14:39 | -27.53872 | -49.90047 | 6509 ft | 95 kts | 232° |
| 2026-05-04 14:40 | -27.54836 | -49.91086 | 6509 ft | 97 kts | 232° |
| 2026-05-04 14:40 | -27.55332 | -49.91613 | 6500 ft | 98 kts | 232° |
| 2026-05-04 14:40 | -27.55822 | -49.92135 | 6492 ft | 96 kts | 231° |
| 2026-05-04 14:40 | -27.56308 | -49.92647 | 6485 ft | 95 kts | 232° |
| 2026-05-04 14:41 | -27.56787 | -49.93149 | 6499 ft | 94 kts | 231° |
| 2026-05-04 14:41 | -27.57269 | -49.93665 | 6511 ft | 97 kts | 232° |
| 2026-05-04 14:41 | -27.58262 | -49.94731 | 6498 ft | 99 kts | 231° |
| 2026-05-04 14:42 | -27.59250 | -49.95777 | 6479 ft | 96 kts | 231° |
| 2026-05-04 14:42 | -27.59741 | -49.96293 | 6497 ft | 96 kts | 231° |
| 2026-05-04 14:42 | -27.60232 | -49.96813 | 6502 ft | 97 kts | 231° |
| 2026-05-04 14:43 | -27.60728 | -49.97338 | 6497 ft | 97 kts | 231° |
| 2026-05-04 14:43 | -27.61225 | -49.97859 | 6497 ft | 98 kts | 231° |
| 2026-05-04 14:43 | -27.61727 | -49.98387 | 6499 ft | 99 kts | 231° |
| 2026-05-04 14:43 | -27.62228 | -49.98920 | 6493 ft | 99 kts | 232° |
| 2026-05-04 14:44 | -27.62719 | -49.99466 | 6418 ft | 103 kts | 233° |
| 2026-05-04 14:44 | -27.63222 | -50.00058 | 6290 ft | 106 kts | 234° |
| 2026-05-04 14:44 | -27.63729 | -50.00672 | 6164 ft | 107 kts | 234° |
| 2026-05-04 14:44 | -27.64238 | -50.01298 | 6044 ft | 108 kts | 235° |
| 2026-05-04 14:45 | -27.64744 | -50.01930 | 5917 ft | 109 kts | 235° |
| 2026-05-04 14:45 | -27.65252 | -50.02565 | 5778 ft | 109 kts | 235° |
| 2026-05-04 14:45 | -27.65761 | -50.03202 | 5638 ft | 109 kts | 235° |
| 2026-05-04 14:45 | -27.66274 | -50.03841 | 5525 ft | 111 kts | 235° |
| 2026-05-04 14:46 | -27.66794 | -50.04490 | 5402 ft | 112 kts | 235° |
| 2026-05-04 14:46 | -27.67311 | -50.05131 | 5294 ft | 113 kts | 235° |
| 2026-05-04 14:46 | -27.67841 | -50.05786 | 5173 ft | 113 kts | 235° |
| 2026-05-04 14:46 | -27.68377 | -50.06448 | 5061 ft | 115 kts | 235° |
| 2026-05-04 14:47 | -27.68920 | -50.07114 | 4944 ft | 116 kts | 235° |
| 2026-05-04 14:47 | -27.69459 | -50.07780 | 4819 ft | 113 kts | 234° |
| 2026-05-04 14:47 | -27.69983 | -50.08439 | 4677 ft | 112 kts | 235° |
| 2026-05-04 14:47 | -27.70500 | -50.09086 | 4536 ft | 110 kts | 234° |
| 2026-05-04 14:48 | -27.71008 | -50.09718 | 4358 ft | 107 kts | 235° |
| 2026-05-04 14:48 | -27.71504 | -50.10359 | 4232 ft | 109 kts | 234° |
| 2026-05-04 14:48 | -27.71991 | -50.11009 | 4093 ft | 109 kts | 234° |
| 2026-05-04 14:48 | -27.72477 | -50.11693 | 3988 ft | 111 kts | 234° |
| 2026-05-04 14:49 | -27.72944 | -50.12372 | 3834 ft | 110 kts | 234° |
| 2026-05-04 14:49 | -27.73403 | -50.13063 | 3724 ft | 110 kts | 234° |
| 2026-05-04 14:49 | -27.73856 | -50.13761 | 3616 ft | 110 kts | 234° |
| 2026-05-04 14:49 | -27.74283 | -50.14438 | 3797 ft | 101 kts | 236° |
| 2026-05-04 14:50 | -27.74688 | -50.15058 | 4025 ft | 96 kts | 234° |
| 2026-05-04 14:50 | -27.75104 | -50.15637 | 4269 ft | 93 kts | 234° |
| 2026-05-04 14:50 | -27.75536 | -50.16177 | 4446 ft | 98 kts | 235° |
| 2026-05-04 14:50 | -27.76021 | -50.16795 | 4472 ft | 110 kts | 234° |
| 2026-05-04 14:51 | -27.76532 | -50.17449 | 4490 ft | 112 kts | 235° |
| 2026-05-04 14:51 | -27.77062 | -50.18108 | 4492 ft | 115 kts | 234° |
| 2026-05-04 14:51 | -27.77581 | -50.18788 | 4477 ft | 112 kts | 242° |
| 2026-05-04 14:51 | -27.77984 | -50.19525 | 4474 ft | 109 kts | 249° |
| 2026-05-04 14:52 | -27.78298 | -50.20294 | 4473 ft | 106 kts | 259° |
| 2026-05-04 14:52 | -27.78373 | -50.21094 | 4490 ft | 103 kts | 276° |
| 2026-05-04 14:52 | -27.78325 | -50.21891 | 4484 ft | 101 kts | 285° |
| 2026-05-04 14:52 | -27.78236 | -50.22688 | 4493 ft | 102 kts | 286° |
| 2026-05-04 14:53 | -27.78120 | -50.23469 | 4439 ft | 103 kts | 287° |
| 2026-05-04 14:53 | -27.77997 | -50.24259 | 4356 ft | 101 kts | 287° |
| 2026-05-04 14:53 | -27.77871 | -50.25034 | 4317 ft | 99 kts | 287° |
| 2026-05-04 14:53 | -27.77734 | -50.25787 | 4288 ft | 95 kts | 296° |
| 2026-05-04 14:54 | -27.77355 | -50.26350 | 4285 ft | 90 kts | 316° |
| 2026-05-04 14:54 | -27.76956 | -50.26890 | 4283 ft | 89 kts | 316° |
| 2026-05-04 14:54 | -27.76569 | -50.27429 | 4274 ft | 87 kts | 316° |
| 2026-05-04 14:54 | -27.76239 | -50.27991 | 4277 ft | 90 kts | 290° |
| 2026-05-04 14:55 | -27.76537 | -50.28615 | 4234 ft | 100 kts | 220° |
| 2026-05-04 14:55 | -27.77075 | -50.29092 | 4249 ft | 97 kts | 226° |
| 2026-05-04 14:55 | -27.77603 | -50.29562 | 4269 ft | 97 kts | 224° |
| 2026-05-04 14:55 | -27.78222 | -50.29885 | 4265 ft | 104 kts | 181° |
| 2026-05-04 14:56 | -27.78890 | -50.29600 | 4264 ft | 102 kts | 150° |
| 2026-05-04 14:56 | -27.79499 | -50.29203 | 4281 ft | 100 kts | 146° |
| 2026-05-04 14:56 | -27.80093 | -50.28782 | 4296 ft | 101 kts | 144° |
| 2026-05-04 14:56 | -27.80627 | -50.28294 | 4308 ft | 101 kts | 134° |
| 2026-05-04 14:57 | -27.80949 | -50.27645 | 4088 ft | 103 kts | 63° |
| 2026-05-04 14:57 | -27.80531 | -50.27186 | 4185 ft | 83 kts | 28° |
| 2026-05-04 14:57 | -27.79993 | -50.27053 | 3985 ft | 76 kts | 348° |
| 2026-05-04 14:57 | -27.79485 | -50.27316 | 3623 ft | 84 kts | 342° |
| 2026-05-04 14:58 | -27.78962 | -50.27653 | 3277 ft | 92 kts | 333° |
| 2026-05-04 14:58 | -27.78415 | -50.28015 | 3062 ft | 83 kts | 336° |
| 2026-05-04 14:58 | -27.78051 | -50.28263 | 3039 ft | 42 kts | 330° |
| 2026-05-04 14:58 | -27.77889 | -50.28372 | 3031 ft | 16 kts | 330° |
| 2026-05-04 14:59 | -27.77887 | -50.28383 | 3031 ft | 12 kts | 142° |
| 2026-05-04 14:59 | -27.77978 | -50.28304 | 3036 ft | 20 kts | 154° |
| 2026-05-04 14:59 | -27.78242 | -50.28118 | 3048 ft | 18 kts | 133° |
| 2026-05-04 15:00 | -27.78255 | -50.28059 | 3048 ft | 11 kts | 62° |
| 2026-05-04 15:00 | -27.78198 | -50.27990 | 3047 ft | 14 kts | 26° |
| 2026-05-04 15:00 | -27.78187 | -50.28028 | 3046 ft | 0 kts | 151° |